createdAt,value
2018-12-05T00:00:15.295Z,30.5
2018-12-05T00:01:05.077Z,30.6
2018-12-05T00:01:55.183Z,30.5
2018-12-05T00:02:45.183Z,30.6
2018-12-05T00:03:34.936Z,30.6
2018-12-05T00:04:25.031Z,30.5
2018-12-05T00:05:15.381Z,30.6
2018-12-05T00:06:05.133Z,30.5
2018-12-05T00:06:55.193Z,30.5
2018-12-05T00:25:07.487Z,30.4
2018-12-05T00:25:57.032Z,30.4
2018-12-05T00:26:47.356Z,30.4
2018-12-05T00:27:37.411Z,30.4
2018-12-05T00:28:26.901Z,30.4
2018-12-05T00:29:16.426Z,30.4
2018-12-05T00:30:07.579Z,30.4
2018-12-05T00:30:57.093Z,30.4
2018-12-05T00:31:46.614Z,30.4
2018-12-05T00:32:37.508Z,30.4
2018-12-05T00:33:28.078Z,30.4
2018-12-05T00:34:17.800Z,30.4
2018-12-05T00:35:07.371Z,30.4
2018-12-05T00:35:57.628Z,30.4
2018-12-05T00:36:47.986Z,30.4
2018-12-05T00:37:38.072Z,30.4
2018-12-05T00:38:28.663Z,30.4
2018-12-05T00:39:18.405Z,30.4
2018-12-05T00:40:09.378Z,30.4
2018-12-05T00:40:57.697Z,30.4
2018-12-05T00:41:48.898Z,30.4
2018-12-05T00:42:38.190Z,30.4
2018-12-05T00:43:28.997Z,30.4
2018-12-05T00:44:18.712Z,30.4
2018-12-05T00:45:09.060Z,30.4
2018-12-05T00:45:58.315Z,30.4
2018-12-05T00:46:48.908Z,30.4
2018-12-05T00:47:37.660Z,30.4
2018-12-05T00:48:29.557Z,30.4
2018-12-05T00:49:18.050Z,30.4
2018-12-05T00:50:09.439Z,30.4
2018-12-05T00:50:59.241Z,30.4
2018-12-05T00:51:47.675Z,30.4
2018-12-05T00:52:38.026Z,30.4
2018-12-05T00:53:29.419Z,30.4
2018-12-05T00:54:18.944Z,30.4
2018-12-05T00:55:09.285Z,30.4
2018-12-05T00:55:59.067Z,30.4
2018-12-05T00:56:49.131Z,30.3
2018-12-05T00:57:38.909Z,30.4
2018-12-05T00:58:29.279Z,30.3
2018-12-05T00:59:19.509Z,30.3
2018-12-05T01:00:09.632Z,30.3
2018-12-05T01:00:59.424Z,30.3
2018-12-05T01:01:49.466Z,30.3
2018-12-05T01:02:39.821Z,30.3
2018-12-05T01:03:29.546Z,30.3
2018-12-05T01:04:20.184Z,30.3
2018-12-05T01:05:11.695Z,30.3
2018-12-05T01:05:59.957Z,30.3
2018-12-05T01:06:50.016Z,30.3
2018-12-05T01:07:39.860Z,30.3
2018-12-05T01:08:30.423Z,30.3
2018-12-05T01:09:20.186Z,30.3
2018-12-05T01:10:09.459Z,30.3
2018-12-05T01:11:00.933Z,30.3
2018-12-05T01:11:51.016Z,30.3
2018-12-05T01:12:40.428Z,30.3
2018-12-05T01:13:30.735Z,30.3
2018-12-05T01:14:20.805Z,30.3
2018-12-05T01:15:11.502Z,30.3
2018-12-05T01:16:00.611Z,30.3
2018-12-05T01:16:51.017Z,30.3
2018-12-05T01:17:40.263Z,30.3
2018-12-05T01:18:31.118Z,30.3
2018-12-05T01:19:21.655Z,30.3
2018-12-05T01:20:10.095Z,30.3
2018-12-05T01:21:01.581Z,30.3
2018-12-05T01:21:51.328Z,30.3
2018-12-05T01:22:41.645Z,30.3
2018-12-05T01:23:31.738Z,30.3
2018-12-05T01:24:21.325Z,30.3
2018-12-05T01:25:11.005Z,30.3
2018-12-05T01:26:00.770Z,30.3
2018-12-05T01:26:50.896Z,30.3
2018-12-05T01:27:41.728Z,30.2
2018-12-05T01:28:30.959Z,30.3
2018-12-05T01:29:21.519Z,30.3
2018-12-05T01:30:12.142Z,30.2
2018-12-05T01:31:01.636Z,30.2
2018-12-05T01:31:51.167Z,30.2
2018-12-05T01:32:41.828Z,30.2
2018-12-05T01:33:31.867Z,30.2
2018-12-05T01:34:22.509Z,30.2
2018-12-05T01:35:12.492Z,30.2
2018-12-05T01:36:02.248Z,30.2
2018-12-05T01:36:51.584Z,30.2
2018-12-05T01:37:41.562Z,30.2
2018-12-05T01:38:31.912Z,30.2
2018-12-05T01:39:22.526Z,30.2
2018-12-05T01:40:12.566Z,30.2
2018-12-05T01:41:02.407Z,30.2
2018-12-05T01:41:51.564Z,30.2
2018-12-05T01:42:42.201Z,30.2
2018-12-05T01:43:32.281Z,30.2
2018-12-05T01:44:22.048Z,30.2
2018-12-05T01:45:13.181Z,30.2
2018-12-05T01:46:02.974Z,30.1
2018-12-05T01:46:52.749Z,30.2
2018-12-05T01:47:42.891Z,30.2
2018-12-05T01:48:32.876Z,30.1
2018-12-05T01:49:23.226Z,30.1
2018-12-05T01:50:12.422Z,30.1
2018-12-05T01:51:03.306Z,30.1
2018-12-05T01:51:52.608Z,30.1
2018-12-05T01:52:43.958Z,30.1
2018-12-05T01:53:33.763Z,30.1
2018-12-05T01:54:23.018Z,30.1
2018-12-05T01:55:12.496Z,30.1
2018-12-05T01:56:03.623Z,30.1
2018-12-05T01:56:53.955Z,30.1
2018-12-05T01:57:44.163Z,30.1
2018-12-05T01:58:33.371Z,30.1
2018-12-05T01:59:23.614Z,30.1
2018-12-05T02:00:13.943Z,30.1
2018-12-05T02:01:03.503Z,30.1
2018-12-05T02:01:54.378Z,30.1
2018-12-05T02:02:43.828Z,30.1
2018-12-05T02:03:34.453Z,30.1
2018-12-05T02:04:23.213Z,30.2
2018-12-05T02:05:13.729Z,30.2
2018-12-05T02:06:03.788Z,30.2
2018-12-05T02:06:54.945Z,30.3
2018-12-05T02:07:44.738Z,30.3
2018-12-05T02:08:33.698Z,30.3
2018-12-05T02:09:24.582Z,30.3
2018-12-05T02:10:14.350Z,30.4
2018-12-05T02:11:04.930Z,30.4
2018-12-05T02:11:54.515Z,30.5
2018-12-05T02:12:44.303Z,30.6
2018-12-05T02:13:34.586Z,30.6
2018-12-05T02:14:24.483Z,30.7
2018-12-05T02:15:14.692Z,30.8
2018-12-05T02:16:04.625Z,30.9
2018-12-05T02:16:55.371Z,30.9
2018-12-05T02:17:44.605Z,31
2018-12-05T02:18:34.920Z,31.1
2018-12-05T02:19:25.260Z,31.2
2018-12-05T02:20:15.379Z,31.3
2018-12-05T02:21:06.059Z,31.3
2018-12-05T02:21:55.442Z,31.4
2018-12-05T02:22:44.058Z,31.5
2018-12-05T02:23:35.542Z,31.6
2018-12-05T02:24:24.522Z,31.7
2018-12-05T02:25:15.919Z,31.8
2018-12-05T02:26:05.530Z,31.9
2018-12-05T02:26:56.032Z,31.9
2018-12-05T02:27:45.406Z,32.1
2018-12-05T02:28:35.619Z,32.1
2018-12-05T02:29:25.981Z,32.3
2018-12-05T02:30:16.166Z,32.3
2018-12-05T02:31:06.099Z,32.4
2018-12-05T02:31:56.113Z,32.5
2018-12-05T02:32:46.218Z,32.6
2018-12-05T02:33:36.825Z,32.8
2018-12-05T02:34:26.377Z,32.8
2018-12-05T02:35:15.524Z,32.9
2018-12-05T02:36:06.721Z,33.1
2018-12-05T02:36:56.262Z,33.1
2018-12-05T02:37:46.260Z,33.3
2018-12-05T02:38:36.059Z,33.4
2018-12-05T02:39:26.483Z,33.4
2018-12-05T02:40:16.969Z,33.6
2018-12-05T02:41:06.744Z,33.6
2018-12-05T02:41:56.646Z,33.8
2018-12-05T02:42:46.088Z,33.9
2018-12-05T02:43:36.663Z,33.9
2018-12-05T02:44:27.326Z,34.1
2018-12-05T02:45:16.849Z,34.2
2018-12-05T02:46:07.404Z,34.3
2018-12-05T02:46:56.565Z,34.4
2018-12-05T02:47:47.585Z,34.5
2018-12-05T02:48:36.713Z,34.6
2018-12-05T02:49:26.233Z,34.7
2018-12-05T02:50:17.393Z,34.8
2018-12-05T02:51:06.898Z,34.9
2018-12-05T02:51:56.997Z,35
2018-12-05T02:52:47.275Z,35.2
2018-12-05T02:53:37.432Z,35.3
2018-12-05T02:54:27.549Z,35.4
2018-12-05T02:55:17.768Z,35.5
2018-12-05T02:56:08.059Z,35.6
2018-12-05T02:56:57.696Z,35.8
2018-12-05T02:57:47.551Z,35.8
2018-12-05T02:58:38.173Z,35.9
2018-12-05T02:59:27.842Z,36.1
2018-12-05T03:00:19.521Z,36.2
2018-12-05T03:01:07.707Z,36.3
2018-12-05T03:01:57.927Z,36.4
2018-12-05T03:02:47.732Z,36.5
2018-12-05T03:03:37.474Z,36.6
2018-12-05T03:04:28.119Z,36.8
2018-12-05T03:05:18.284Z,36.9
2018-12-05T03:06:08.018Z,37
2018-12-05T03:06:58.252Z,37.1
2018-12-05T03:07:48.071Z,37.2
2018-12-05T03:08:38.387Z,37.3
2018-12-05T03:09:29.287Z,37.4
2018-12-05T03:10:18.529Z,37.6
2018-12-05T03:11:08.555Z,37.7
2018-12-05T03:11:58.872Z,37.8
2018-12-05T03:12:48.947Z,37.9
2018-12-05T03:13:38.744Z,38.1
2018-12-05T03:14:28.763Z,38.1
2018-12-05T03:15:18.823Z,38.3
2018-12-05T03:16:08.375Z,38.4
2018-12-05T03:16:59.217Z,38.4
2018-12-05T03:17:49.539Z,38.6
2018-12-05T03:18:39.097Z,38.6
2018-12-05T03:19:29.441Z,38.7
2018-12-05T03:20:19.178Z,38.8
2018-12-05T03:21:09.560Z,38.8
2018-12-05T03:21:59.865Z,38.9
2018-12-05T03:22:49.903Z,38.9
2018-12-05T03:23:39.700Z,39
2018-12-05T03:24:29.778Z,39
2018-12-05T03:25:19.814Z,39.1
2018-12-05T03:26:09.912Z,39.1
2018-12-05T03:26:59.377Z,39.1
2018-12-05T03:27:49.997Z,39.2
2018-12-05T03:28:40.294Z,39.2
2018-12-05T03:29:30.070Z,39.3
2018-12-05T03:30:20.465Z,39.3
2018-12-05T03:31:10.051Z,39.3
2018-12-05T03:32:00.136Z,39.3
2018-12-05T03:32:50.757Z,39.4
2018-12-05T03:33:40.568Z,39.4
2018-12-05T03:34:30.422Z,39.4
2018-12-05T03:35:21.902Z,39.4
2018-12-05T03:36:09.700Z,39.4
2018-12-05T03:37:00.672Z,39.4
2018-12-05T03:37:50.094Z,39.4
2018-12-05T03:38:40.521Z,39.4
2018-12-05T03:39:30.771Z,39.4
2018-12-05T03:40:20.579Z,39.4
2018-12-05T03:41:10.719Z,39.4
2018-12-05T03:42:00.998Z,39.4
2018-12-05T03:42:50.979Z,39.4
2018-12-05T03:43:41.608Z,39.4
2018-12-05T03:44:31.141Z,39.4
2018-12-05T03:45:20.602Z,39.4
2018-12-05T03:46:10.964Z,39.4
2018-12-05T03:47:01.036Z,39.4
2018-12-05T03:47:51.348Z,39.4
2018-12-05T03:48:40.604Z,39.5
2018-12-05T03:49:31.191Z,39.5
2018-12-05T03:50:20.471Z,39.5
2018-12-05T03:51:11.616Z,39.4
2018-12-05T03:52:01.358Z,39.4
2018-12-05T03:52:51.956Z,39.5
2018-12-05T03:53:41.769Z,39.4
2018-12-05T03:54:31.575Z,39.5
2018-12-05T03:55:23.675Z,39.5
2018-12-05T03:56:11.977Z,39.4
2018-12-05T03:57:02.056Z,39.4
2018-12-05T03:57:51.493Z,39.4
2018-12-05T03:58:41.591Z,39.4
2018-12-05T03:59:31.595Z,39.4
2018-12-05T04:00:21.660Z,39.4
2018-12-05T04:01:12.246Z,39.4
2018-12-05T04:02:02.695Z,39.4
2018-12-05T04:02:52.649Z,39.4
2018-12-05T04:03:41.593Z,39.4
2018-12-05T04:04:32.747Z,39.4
2018-12-05T04:05:22.292Z,39.4
2018-12-05T04:06:12.610Z,39.4
2018-12-05T04:07:03.909Z,39.4
2018-12-05T04:07:52.440Z,39.4
2018-12-05T04:08:42.504Z,39.4
2018-12-05T04:09:34.098Z,39.4
2018-12-05T04:10:22.640Z,39.4
2018-12-05T04:11:13.902Z,39.4
2018-12-05T04:12:02.960Z,39.4
2018-12-05T04:12:54.275Z,39.4
2018-12-05T04:13:42.275Z,39.4
2018-12-05T04:14:32.795Z,39.4
2018-12-05T04:15:22.997Z,39.4
2018-12-05T04:16:13.334Z,39.4
2018-12-05T04:17:03.417Z,39.4
2018-12-05T04:17:53.311Z,39.4
2018-12-05T04:18:43.795Z,39.4
2018-12-05T04:19:33.537Z,39.4
2018-12-05T04:20:23.560Z,39.4
2018-12-05T04:21:13.062Z,39.4
2018-12-05T04:22:03.947Z,39.4
2018-12-05T04:22:53.449Z,39.4
2018-12-05T04:23:44.195Z,39.4
2018-12-05T04:24:33.915Z,39.4
2018-12-05T04:25:23.458Z,39.4
2018-12-05T04:26:13.707Z,39.4
2018-12-05T04:27:03.505Z,39.4
2018-12-05T04:27:54.072Z,39.4
2018-12-05T04:28:43.862Z,39.4
2018-12-05T04:29:33.912Z,39.4
2018-12-05T04:30:25.051Z,39.4
2018-12-05T04:31:14.311Z,39.4
2018-12-05T04:32:04.401Z,39.4
2018-12-05T04:32:54.469Z,39.4
2018-12-05T04:33:44.202Z,39.4
2018-12-05T04:34:33.993Z,39.4
2018-12-05T04:35:24.044Z,39.4
2018-12-05T04:36:14.953Z,39.4
2018-12-05T04:37:04.809Z,39.4
2018-12-05T04:54:19.663Z,39.3
2018-12-05T04:55:07.617Z,39.3
2018-12-05T04:55:57.902Z,39.3
2018-12-05T04:56:48.022Z,39.3
2018-12-05T04:57:38.300Z,39.3
2018-12-05T04:58:28.665Z,39.2
2018-12-05T04:59:21.525Z,39.3
2018-12-05T05:00:07.945Z,39.3
2018-12-05T05:00:57.967Z,39.2
2018-12-05T05:01:48.587Z,39.2
2018-12-05T05:02:38.065Z,39.2
2018-12-05T05:03:28.133Z,39.2
2018-12-05T05:04:19.025Z,39.2
2018-12-05T05:05:08.259Z,39.2
2018-12-05T05:05:58.698Z,39.2
2018-12-05T05:06:48.457Z,39.2
2018-12-05T05:07:38.725Z,39.2
2018-12-05T05:08:28.759Z,39.2
2018-12-05T05:09:19.367Z,39.2
2018-12-05T05:10:08.050Z,39.2
2018-12-05T05:10:59.187Z,39.2
2018-12-05T05:11:48.766Z,39.2
2018-12-05T05:12:39.014Z,39.2
2018-12-05T05:13:29.201Z,39.2
2018-12-05T05:14:18.321Z,39.2
2018-12-05T05:15:08.939Z,39.2
2018-12-05T05:15:59.258Z,39.2
2018-12-05T05:16:49.079Z,39.2
2018-12-05T05:17:39.099Z,39.1
2018-12-05T05:18:29.698Z,39.2
2018-12-05T05:19:19.931Z,39.2
2018-12-05T05:20:09.824Z,39.1
2018-12-05T05:20:59.623Z,39.1
2018-12-05T05:21:49.663Z,39.1
2018-12-05T05:22:40.131Z,39.1
2018-12-05T05:23:29.811Z,39.1
2018-12-05T05:24:19.828Z,39.1
2018-12-05T05:25:10.487Z,39.1
2018-12-05T05:25:59.980Z,39.1
2018-12-05T05:26:49.989Z,39.1
2018-12-05T05:27:47.645Z,39.1
2018-12-05T05:28:30.094Z,39.1
2018-12-05T05:29:20.428Z,39.1
2018-12-05T05:30:10.835Z,39.1
2018-12-05T05:30:59.978Z,39.1
2018-12-05T05:31:50.938Z,39.1
2018-12-05T05:32:39.290Z,39.1
2018-12-05T05:33:30.573Z,39.1
2018-12-05T05:34:20.230Z,39.1
2018-12-05T05:35:11.103Z,39.1
2018-12-05T05:36:00.345Z,39.1
2018-12-05T05:36:50.696Z,39.1
2018-12-05T05:37:41.027Z,39.1
2018-12-05T05:38:30.295Z,39.1
2018-12-05T05:39:21.132Z,39.1
2018-12-05T05:40:11.862Z,39.1
2018-12-05T05:41:01.770Z,39.1
2018-12-05T05:41:50.815Z,39.1
2018-12-05T05:42:41.060Z,39.1
2018-12-05T05:43:31.117Z,39.1
2018-12-05T05:44:21.469Z,39.1
2018-12-05T05:45:11.767Z,39.1
2018-12-05T05:46:02.099Z,39.1
2018-12-05T05:46:51.944Z,39.1
2018-12-05T05:47:41.959Z,39.1
2018-12-05T05:48:31.714Z,39.1
2018-12-05T05:49:21.502Z,39.1
2018-12-05T05:50:11.859Z,39.1
2018-12-05T05:51:01.652Z,39.1
2018-12-05T05:51:51.677Z,39.1
2018-12-05T05:52:41.194Z,39.1
2018-12-05T05:53:31.519Z,39.1
2018-12-05T05:54:22.136Z,39
2018-12-05T05:55:12.203Z,39
2018-12-05T05:56:01.975Z,39
2018-12-05T05:56:52.082Z,39
2018-12-05T05:57:42.389Z,39
2018-12-05T05:58:31.599Z,39
2018-12-05T05:59:22.269Z,39
2018-12-05T06:00:12.267Z,39
2018-12-05T06:01:02.121Z,39
2018-12-05T06:01:52.935Z,39
2018-12-05T06:02:42.166Z,39
2018-12-05T06:03:32.539Z,39
2018-12-05T06:04:22.814Z,39
2018-12-05T06:05:12.604Z,39
2018-12-05T06:06:02.889Z,38.9
2018-12-05T06:06:52.409Z,38.9
2018-12-05T06:07:42.769Z,38.9
2018-12-05T06:08:32.538Z,38.9
2018-12-05T06:09:23.154Z,38.9
2018-12-05T06:10:12.693Z,38.9
2018-12-05T06:11:03.003Z,38.9
2018-12-05T06:11:53.671Z,38.9
2018-12-05T06:12:43.676Z,38.9
2018-12-05T06:13:33.148Z,38.9
2018-12-05T06:14:23.574Z,38.9
2018-12-05T06:15:13.813Z,38.9
2018-12-05T06:16:03.618Z,38.9
2018-12-05T06:16:53.108Z,38.9
2018-12-05T06:17:43.443Z,38.9
2018-12-05T06:18:33.511Z,38.9
2018-12-05T06:19:24.184Z,38.9
2018-12-05T06:20:13.616Z,38.9
2018-12-05T06:21:03.716Z,38.9
2018-12-05T06:21:53.772Z,38.9
2018-12-05T06:22:43.773Z,38.9
2018-12-05T06:23:34.148Z,38.9
2018-12-05T06:24:23.955Z,38.9
2018-12-05T06:25:13.734Z,38.9
2018-12-05T06:26:04.050Z,38.8
2018-12-05T06:26:54.127Z,38.8
2018-12-05T06:27:44.167Z,38.6
2018-12-05T06:28:34.502Z,38.3
2018-12-05T06:29:24.777Z,38
2018-12-05T06:30:14.010Z,37.7
2018-12-05T06:31:04.318Z,37.4
2018-12-05T06:31:54.377Z,37.1
2018-12-05T06:32:44.165Z,36.8
2018-12-05T06:33:36.800Z,36.7
2018-12-05T06:34:25.132Z,36.7
2018-12-05T06:35:15.177Z,36.8
2018-12-05T06:36:04.684Z,36.9
2018-12-05T06:36:54.782Z,37
2018-12-05T06:37:45.322Z,37.2
2018-12-05T06:38:34.874Z,37.3
2018-12-05T06:39:24.626Z,37.4
2018-12-05T06:40:14.131Z,37.6
2018-12-05T06:41:05.312Z,37.6
2018-12-05T06:41:55.389Z,37.8
2018-12-05T06:42:45.681Z,37.8
2018-12-05T06:43:35.751Z,37.9
2018-12-05T06:44:25.525Z,37.9
2018-12-05T06:45:15.670Z,38
2018-12-05T06:46:04.801Z,38.1
2018-12-05T06:46:55.686Z,38.1
2018-12-05T06:47:46.006Z,38.1
2018-12-05T06:48:36.117Z,38.1
2018-12-05T06:49:25.642Z,38.2
2018-12-05T06:50:16.249Z,38.2
2018-12-05T06:51:05.748Z,38.2
2018-12-05T06:51:54.994Z,38.3
2018-12-05T06:52:45.536Z,38.3
2018-12-05T06:53:37.548Z,38.3
2018-12-05T06:54:26.242Z,38.3
2018-12-05T06:55:16.338Z,38.3
2018-12-05T06:56:06.621Z,38.3
2018-12-05T06:56:55.821Z,38.3
2018-12-05T06:57:46.429Z,38.3
2018-12-05T06:58:36.221Z,38.3
2018-12-05T06:59:26.828Z,38.3
2018-12-05T07:00:16.098Z,38.3
2018-12-05T07:01:06.402Z,38.3
2018-12-05T07:01:56.843Z,38.3
2018-12-05T07:02:46.493Z,38.3
2018-12-05T07:03:36.243Z,38.3
2018-12-05T07:04:26.613Z,38.3
2018-12-05T07:05:16.948Z,38.3
2018-12-05T07:06:06.722Z,38.3
2018-12-05T07:06:57.320Z,38.3
2018-12-05T07:07:47.143Z,38.3
2018-12-05T07:08:37.178Z,38.3
2018-12-05T07:09:25.920Z,38.3
2018-12-05T07:10:17.020Z,38.3
2018-12-05T07:11:07.365Z,38.3
2018-12-05T07:11:57.107Z,38.3
2018-12-05T07:12:47.433Z,38.2
2018-12-05T07:13:38.083Z,38.3
2018-12-05T07:14:27.342Z,38.2
2018-12-05T07:15:17.364Z,38.1
2018-12-05T07:16:07.439Z,38.1
2018-12-05T07:16:57.492Z,38.1
2018-12-05T07:17:47.304Z,38.1
2018-12-05T07:18:38.709Z,38.1
2018-12-05T07:19:28.472Z,38
2018-12-05T07:20:18.171Z,37.9
2018-12-05T07:21:08.039Z,37.9
2018-12-05T07:21:57.829Z,37.9
2018-12-05T07:22:47.866Z,37.9
2018-12-05T07:23:38.500Z,37.9
2018-12-05T07:24:27.751Z,37.9
2018-12-05T07:25:18.096Z,37.8
2018-12-05T07:26:07.971Z,37.9
2018-12-05T07:26:57.959Z,37.9
2018-12-05T07:27:48.179Z,37.8
2018-12-05T07:28:38.588Z,37.8
2018-12-05T07:29:28.618Z,37.8
2018-12-05T07:30:17.833Z,37.8
2018-12-05T07:31:08.187Z,37.9
2018-12-05T07:31:58.509Z,37.8
2018-12-05T07:32:48.998Z,37.8
2018-12-05T07:33:38.906Z,37.8
2018-12-05T07:34:29.012Z,37.9
2018-12-05T07:35:18.970Z,37.9
2018-12-05T07:36:07.956Z,37.8
2018-12-05T07:36:58.028Z,37.9
2018-12-05T07:37:48.635Z,37.8
2018-12-05T07:38:39.008Z,37.9
2018-12-05T07:39:29.331Z,37.9
2018-12-05T07:40:19.379Z,37.8
2018-12-05T07:41:09.395Z,37.8
2018-12-05T07:41:59.547Z,37.8
2018-12-05T07:42:49.335Z,37.8
2018-12-05T07:43:39.310Z,37.8
2018-12-05T07:44:29.910Z,37.8
2018-12-05T07:45:19.417Z,37.8
2018-12-05T07:46:09.472Z,37.8
2018-12-05T07:46:59.814Z,37.8
2018-12-05T07:47:49.942Z,37.8
2018-12-05T07:48:40.194Z,37.8
2018-12-05T07:49:30.057Z,37.7
2018-12-05T07:50:22.222Z,37.7
2018-12-05T07:51:09.825Z,37.7
2018-12-05T07:52:00.412Z,37.7
2018-12-05T07:52:49.932Z,37.7
2018-12-05T07:53:39.757Z,37.7
2018-12-05T07:54:29.786Z,37.7
2018-12-05T07:55:20.367Z,37.7
2018-12-05T07:56:10.712Z,37.7
2018-12-05T07:56:59.931Z,37.7
2018-12-05T07:57:50.257Z,37.6
2018-12-05T07:58:40.334Z,37.6
2018-12-05T07:59:30.949Z,37.6
2018-12-05T08:00:20.697Z,37.6
2018-12-05T08:01:09.964Z,37.6
2018-12-05T08:02:00.551Z,26.8
2018-12-05T08:02:50.614Z,25.7
2018-12-05T08:03:40.909Z,37.3
2018-12-05T08:04:30.732Z,42.9
2018-12-05T08:05:21.097Z,42.2
2018-12-05T08:06:11.488Z,36.9
2018-12-05T08:07:01.464Z,34.1
2018-12-05T08:07:50.951Z,32.7
2018-12-05T08:08:41.658Z,32
2018-12-05T08:09:31.403Z,31.8
2018-12-05T08:10:21.558Z,31.8
2018-12-05T08:11:11.140Z,32
2018-12-05T08:12:01.883Z,32.3
2018-12-05T08:12:51.300Z,32.2
2018-12-05T08:13:41.644Z,29.3
2018-12-05T08:14:31.153Z,35.4
2018-12-05T08:15:21.763Z,41.4
2018-12-05T08:16:11.522Z,43.8
2018-12-05T08:17:01.123Z,43.6
2018-12-05T08:17:52.212Z,42.3
2018-12-05T08:18:41.169Z,41.1
2018-12-05T08:19:32.072Z,40.4
2018-12-05T08:20:22.110Z,40.4
2018-12-05T08:21:11.945Z,40.9
2018-12-05T08:22:01.982Z,41.8
2018-12-05T08:22:52.282Z,42.4
2018-12-05T08:23:42.419Z,42.9
2018-12-05T08:24:32.369Z,43.2
2018-12-05T08:25:22.433Z,43.3
2018-12-05T08:26:12.287Z,43.3
2018-12-05T08:27:02.569Z,43.4
2018-12-05T08:27:52.429Z,43.6
2018-12-05T08:28:42.954Z,43.8
2018-12-05T08:29:32.734Z,43.4
2018-12-05T08:30:22.801Z,42.9
2018-12-05T08:31:12.939Z,42.1
2018-12-05T08:32:02.361Z,41.3
2018-12-05T08:32:52.440Z,40.4
2018-12-05T08:33:42.203Z,39.7
2018-12-05T08:34:33.362Z,39.2
2018-12-05T08:35:23.463Z,38.9
2018-12-05T08:36:12.956Z,38.8
2018-12-05T08:37:03.623Z,38.8
2018-12-05T08:37:52.488Z,38.8
2018-12-05T08:38:43.386Z,38.8
2018-12-05T08:39:33.686Z,38.7
2018-12-05T08:40:23.486Z,38.4
2018-12-05T08:41:13.572Z,38.1
2018-12-05T08:42:02.791Z,37.7
2018-12-05T08:42:53.463Z,37.4
2018-12-05T08:43:45.615Z,37
2018-12-05T08:44:34.055Z,36.7
2018-12-05T08:45:22.737Z,36.4
2018-12-05T08:46:14.162Z,36.1
2018-12-05T08:47:03.390Z,35.9
2018-12-05T08:47:54.290Z,35.8
2018-12-05T08:48:44.080Z,35.7
2018-12-05T08:49:33.873Z,35.6
2018-12-05T08:50:23.955Z,35.6
2018-12-05T08:51:13.940Z,35.1
2018-12-05T08:52:03.757Z,38.4
2018-12-05T08:52:54.641Z,43.9
2018-12-05T09:08:42.071Z,48.8
2018-12-05T09:09:32.204Z,49.1
2018-12-05T09:10:21.941Z,49.3
2018-12-05T09:11:12.011Z,49
2018-12-05T09:12:02.096Z,48.5
2018-12-05T09:12:52.386Z,48.1
2018-12-05T09:13:42.289Z,47.7
2018-12-05T09:14:35.023Z,47.6
2018-12-05T09:15:22.856Z,47.4
2018-12-05T09:16:12.631Z,47
2018-12-05T09:17:02.688Z,46.4
2018-12-05T09:17:52.693Z,45.7
2018-12-05T09:18:42.546Z,44.9
2018-12-05T09:19:32.296Z,44.4
2018-12-05T09:20:22.072Z,43.9
2018-12-05T09:21:13.919Z,43.6
2018-12-05T09:22:02.468Z,43.3
2018-12-05T09:22:53.622Z,43
2018-12-05T09:23:42.841Z,42.7
2018-12-05T09:24:32.923Z,42.4
2018-12-05T09:25:23.066Z,42.2
2018-12-05T09:26:13.581Z,41.9
2018-12-05T09:27:02.543Z,41.6
2018-12-05T09:27:53.723Z,41.4
2018-12-05T09:28:42.907Z,41
2018-12-05T09:29:32.783Z,40.6
2018-12-05T09:30:23.051Z,40.3
2018-12-05T09:31:13.170Z,39.9
2018-12-05T09:32:03.425Z,39.5
2018-12-05T09:32:53.560Z,39.2
2018-12-05T09:33:43.805Z,38.8
2018-12-05T09:34:33.585Z,38.6
2018-12-05T09:35:24.275Z,38.3
2018-12-05T09:36:13.735Z,38.1
2018-12-05T09:37:04.149Z,37.9
2018-12-05T09:37:54.689Z,37.8
2018-12-05T09:38:44.154Z,37.6
2018-12-05T09:39:34.502Z,37.4
2018-12-05T09:40:23.983Z,37.3
2018-12-05T09:41:13.789Z,37.2
2018-12-05T09:42:04.137Z,37.1
2018-12-05T09:42:54.700Z,36.9
2018-12-05T09:43:44.819Z,36.8
2018-12-05T09:44:34.617Z,36.8
2018-12-05T09:45:24.086Z,36.6
2018-12-05T09:46:14.711Z,36.6
2018-12-05T09:47:04.477Z,36.4
2018-12-05T09:47:53.946Z,36.4
2018-12-05T09:48:44.305Z,36.3
2018-12-05T09:49:34.754Z,36.2
2018-12-05T09:50:25.284Z,36.1
2018-12-05T09:51:15.024Z,36.1
2018-12-05T09:52:05.108Z,36
2018-12-05T09:52:55.781Z,35.9
2018-12-05T09:53:45.055Z,35.9
2018-12-05T09:54:35.311Z,35.8
2018-12-05T09:55:25.308Z,35.7
2018-12-05T09:56:14.271Z,35.6
2018-12-05T09:57:04.896Z,35.6
2018-12-05T09:57:55.218Z,35.6
2018-12-05T09:58:44.798Z,35.5
2018-12-05T09:59:35.023Z,35.4
2018-12-05T10:00:25.493Z,35.4
2018-12-05T10:01:15.463Z,35.4
2018-12-05T10:02:05.530Z,35.3
2018-12-05T10:02:55.588Z,35.3
2018-12-05T10:03:45.053Z,35.2
2018-12-05T10:04:35.960Z,35.2
2018-12-05T10:05:26.297Z,35.1
2018-12-05T10:06:15.526Z,35.1
2018-12-05T10:07:05.590Z,35.1
2018-12-05T10:07:56.425Z,35
2018-12-05T10:08:45.687Z,34.9
2018-12-05T10:09:36.307Z,34.9
2018-12-05T10:10:25.898Z,34.9
2018-12-05T10:11:15.613Z,34.8
2018-12-05T10:12:06.027Z,34.8
2018-12-05T10:12:56.150Z,34.8
2018-12-05T10:13:46.405Z,34.8
2018-12-05T10:14:35.872Z,34.7
2018-12-05T10:15:25.684Z,34.7
2018-12-05T10:16:16.014Z,34.6
2018-12-05T10:17:06.074Z,34.6
2018-12-05T10:17:56.421Z,34.6
2018-12-05T10:18:46.700Z,34.6
2018-12-05T10:19:37.255Z,34.5
2018-12-05T10:20:25.382Z,34.5
2018-12-05T10:21:17.121Z,34.5
2018-12-05T10:22:06.686Z,34.5
2018-12-05T10:22:56.751Z,34.4
2018-12-05T10:23:47.011Z,34.4
2018-12-05T10:24:37.061Z,34.4
2018-12-05T10:25:26.836Z,34.4
2018-12-05T10:26:17.001Z,34.4
2018-12-05T10:27:07.508Z,34.3
2018-12-05T10:27:57.004Z,34.3
2018-12-05T10:28:48.153Z,34.3
2018-12-05T10:29:37.464Z,34.3
2018-12-05T10:30:27.429Z,34.3
2018-12-05T10:31:17.833Z,34.3
2018-12-05T10:32:09.510Z,34.2
2018-12-05T10:32:57.633Z,34.2
2018-12-05T10:33:47.688Z,34.2
2018-12-05T10:34:37.808Z,34.2
2018-12-05T10:35:27.760Z,34.1
2018-12-05T10:36:17.923Z,34.1
2018-12-05T10:37:07.915Z,34.1
2018-12-05T10:37:59.478Z,34.1
2018-12-05T10:38:48.040Z,34.1
2018-12-05T10:39:38.417Z,34
2018-12-05T10:40:28.463Z,34
2018-12-05T10:41:18.052Z,34
2018-12-05T10:42:07.710Z,33.9
2018-12-05T10:42:57.817Z,33.9
2018-12-05T10:43:48.620Z,33.9
2018-12-05T10:44:38.777Z,33.9
2018-12-05T10:45:29.095Z,33.8
2018-12-05T10:46:18.542Z,33.8
2018-12-05T10:47:08.601Z,33.8
2018-12-05T10:47:58.666Z,33.8
2018-12-05T10:48:48.802Z,33.7
2018-12-05T10:49:39.060Z,33.7
2018-12-05T10:50:28.894Z,33.7
2018-12-05T10:51:19.491Z,33.7
2018-12-05T10:52:09.587Z,33.6
2018-12-05T10:52:59.004Z,33.6
2018-12-05T10:53:49.051Z,33.6
2018-12-05T10:54:39.786Z,33.6
2018-12-05T10:55:29.541Z,33.6
2018-12-05T10:56:18.705Z,33.5
2018-12-05T10:57:09.551Z,33.5
2018-12-05T10:57:59.694Z,33.5
2018-12-05T10:58:49.413Z,33.5
2018-12-05T10:59:38.945Z,33.4
2018-12-05T11:00:29.821Z,33.4
2018-12-05T11:01:19.019Z,33.4
2018-12-05T11:02:09.891Z,33.4
2018-12-05T11:03:00.498Z,33.3
2018-12-05T11:03:50.039Z,33.3
2018-12-05T11:04:40.375Z,33.3
2018-12-05T11:05:29.588Z,33.3
2018-12-05T11:06:20.173Z,33.3
2018-12-05T11:07:09.700Z,33.3
2018-12-05T11:08:00.297Z,33.3
2018-12-05T11:08:50.103Z,33.2
2018-12-05T11:09:40.508Z,33.2
2018-12-05T11:10:29.637Z,33.2
2018-12-05T11:11:20.027Z,33.1
2018-12-05T11:12:10.039Z,33.1
2018-12-05T11:13:00.370Z,33.1
2018-12-05T11:13:51.038Z,33.1
2018-12-05T11:14:40.758Z,33.1
2018-12-05T11:15:31.111Z,33.1
2018-12-05T11:16:21.117Z,33.1
2018-12-05T11:17:11.209Z,33.1
2018-12-05T11:18:01.012Z,33
2018-12-05T11:18:50.770Z,33
2018-12-05T11:19:40.849Z,33
2018-12-05T11:20:30.971Z,32.9
2018-12-05T11:21:21.489Z,32.9
2018-12-05T11:22:11.619Z,32.9
2018-12-05T11:23:01.616Z,32.9
2018-12-05T11:23:52.809Z,32.9
2018-12-05T11:24:41.691Z,32.9
2018-12-05T11:25:30.484Z,32.8
2018-12-05T11:26:21.081Z,32.8
2018-12-05T11:27:11.164Z,32.8
2018-12-05T11:28:01.166Z,32.8
2018-12-05T11:28:50.986Z,32.8
2018-12-05T11:29:40.468Z,32.8
2018-12-05T11:30:31.444Z,32.8
2018-12-05T11:31:21.144Z,32.8
2018-12-05T11:32:11.423Z,32.8
2018-12-05T11:33:01.501Z,32.7
2018-12-05T11:33:51.808Z,32.7
2018-12-05T11:34:40.745Z,32.7
2018-12-05T11:35:31.874Z,32.7
2018-12-05T11:36:22.335Z,32.7
2018-12-05T11:37:12.582Z,32.7
2018-12-05T11:38:02.637Z,32.6
2018-12-05T11:38:52.697Z,32.7
2018-12-05T11:39:41.674Z,32.6
2018-12-05T11:40:32.264Z,32.6
2018-12-05T11:41:22.297Z,32.6
2018-12-05T11:42:12.475Z,32.6
2018-12-05T11:43:02.279Z,32.6
2018-12-05T11:43:52.769Z,32.6
2018-12-05T11:44:42.819Z,32.6
2018-12-05T11:45:32.879Z,32.5
2018-12-05T11:46:22.387Z,32.5
2018-12-05T11:47:12.319Z,32.4
2018-12-05T11:48:02.469Z,32.4
2018-12-05T11:48:52.551Z,32.4
2018-12-05T11:49:42.427Z,32.4
2018-12-05T11:50:32.104Z,32.4
2018-12-05T11:51:22.374Z,32.4
2018-12-05T11:52:12.919Z,32.4
2018-12-05T11:53:02.707Z,32.4
2018-12-05T11:53:53.491Z,32.4
2018-12-05T11:54:43.046Z,32.4
2018-12-05T11:55:33.509Z,32.3
2018-12-05T11:56:23.429Z,32.3
2018-12-05T11:57:13.681Z,32.3